Time;durP1;ratioP1;P1;durP2;ratioP2;P2;SDS_P1;SDS_P2;PMS_P1;PMS_P2;Temp;Humidity;BMP_temperature;BMP_pressure;BME280_temperature;BME280_humidity;BME280_pressure;Samples;Min_cycle;Max_cycle;Signal;HPM_P1;HPM_P2
2023/09/05 00:02:02;;;;;;;3.03;2.72;;;;;;;;;;5015053;28;20042;-67
2023/09/05 00:04:28;;;;;;;4.07;2.85;;;;;;;;;;5014510;28;20370;-68
2023/09/05 00:06:54;;;;;;;3.10;2.80;;;;;;;;;;5015039;28;20084;-68
2023/09/05 00:09:19;;;;;;;3.28;2.97;;;;;;;;;;5014733;28;20070;-68
2023/09/05 00:11:45;;;;;;;3.65;3.03;;;;;;;;;;5014695;28;20037;-61
2023/09/05 00:14:10;;;;;;;3.35;2.60;;;;;;;;;;4996946;28;20066;-62
2023/09/05 00:16:36;;;;;;;2.88;2.58;;;;;;;;;;5014845;28;20034;-61
2023/09/05 00:19:01;;;;;;;2.50;2.30;;;;;;;;;;5014911;28;20030;-61
2023/09/05 00:21:27;;;;;;;2.70;2.50;;;;;;;;;;5014184;28;20022;-61
2023/09/05 00:23:52;;;;;;;3.30;2.63;;;;;;;;;;5015154;28;20450;-61
2023/09/05 00:26:17;;;;;;;2.58;2.38;;;;;;;;;;5014510;28;20489;-61
2023/09/05 00:28:46;;;;;;;2.40;2.30;;;;;;;;;;4995584;28;20112;-61
2023/09/05 00:31:11;;;;;;;2.80;2.60;;;;;;;;;;4997171;28;20026;-61
2023/09/05 00:33:36;;;;;;;2.53;2.38;;;;;;;;;;4996629;28;20042;-61
2023/09/05 00:36:03;;;;;;;3.22;2.78;;;;;;;;;;5014040;28;20025;-61
2023/09/05 00:38:29;;;;;;;2.80;2.60;;;;;;;;;;5014499;28;20042;-67
2023/09/05 00:40:54;;;;;;;2.72;2.20;;;;;;;;;;5014067;28;20121;-61
2023/09/05 00:43:20;;;;;;;2.53;2.33;;;;;;;;;;5013777;28;20046;-67
2023/09/05 00:45:49;;;;;;;2.95;2.75;;;;;;;;;;5013868;28;20044;-67
2023/09/05 00:48:15;;;;;;;2.95;2.75;;;;;;;;;;5014146;28;20041;-67
2023/09/05 00:50:41;;;;;;;4.78;2.60;;;;;;;;;;4996997;28;20021;-67
2023/09/05 00:53:07;;;;;;;4.25;2.50;;;;;;;;;;5014433;28;20048;-61
2023/09/05 00:55:32;;;;;;;2.97;2.78;;;;;;;;;;4996405;28;20030;-61
2023/09/05 00:58:00;;;;;;;2.60;2.42;;;;;;;;;;5014353;28;20484;-61
2023/09/05 01:00:26;;;;;;;2.70;2.50;;;;;;;;;;5014397;28;20109;-61
2023/09/05 01:02:53;;;;;;;2.60;2.40;;;;;;;;;;5014425;28;20105;-61
2023/09/05 01:05:24;;;;;;;2.67;2.47;;;;;;;;;;4996746;28;20390;-61
2023/09/05 01:07:59;;;;;;;2.75;2.30;;;;;;;;;;5014007;28;20110;-61
2023/09/05 01:10:29;;;;;;;2.35;2.13;;;;;;;;;;5013624;28;20105;-61
2023/09/05 01:12:57;;;;;;;3.13;2.28;;;;;;;;;;5014177;28;20084;-61
2023/09/05 01:15:23;;;;;;;2.50;2.30;;;;;;;;;;5014205;28;20054;-61
2023/09/05 01:17:54;;;;;;;2.30;2.10;;;;;;;;;;5013517;28;20049;-61
2023/09/05 01:20:20;;;;;;;3.08;2.40;;;;;;;;;;4996362;28;20030;-61
2023/09/05 01:22:48;;;;;;;2.50;2.35;;;;;;;;;;5013524;28;20482;-61
2023/09/05 01:25:14;;;;;;;3.70;2.90;;;;;;;;;;4996520;28;20064;-61
2023/09/05 01:27:40;;;;;;;3.35;2.88;;;;;;;;;;5013525;28;20065;-61
2023/09/05 01:30:06;;;;;;;2.63;2.42;;;;;;;;;;5013931;28;20033;-61
2023/09/05 01:32:32;;;;;;;2.63;2.42;;;;;;;;;;5013527;28;20038;-59
2023/09/05 01:34:57;;;;;;;2.90;2.70;;;;;;;;;;5013872;28;20018;-58
2023/09/05 01:37:23;;;;;;;2.60;2.40;;;;;;;;;;5013879;28;20493;-58
2023/09/05 01:39:48;;;;;;;3.03;2.30;;;;;;;;;;4997746;28;20026;-58
2023/09/05 01:42:14;;;;;;;2.15;2.05;;;;;;;;;;4999609;28;20045;-58
2023/09/05 01:44:39;;;;;;;2.22;2.00;;;;;;;;;;5017086;28;20026;-59
2023/09/05 01:47:05;;;;;;;2.55;2.35;;;;;;;;;;4999503;28;20057;-59
2023/09/05 01:49:30;;;;;;;1.95;1.85;;;;;;;;;;5000100;28;20079;-61
2023/09/05 01:51:56;;;;;;;2.35;2.25;;;;;;;;;;5016968;28;20033;-61
2023/09/05 01:54:21;;;;;;;2.33;1.90;;;;;;;;;;5017490;28;20101;-61
2023/09/05 01:56:46;;;;;;;2.45;2.25;;;;;;;;;;5017140;28;20385;-60
2023/09/05 01:59:12;;;;;;;4.13;2.10;;;;;;;;;;4999889;28;20045;-60
2023/09/05 02:01:37;;;;;;;2.47;2.38;;;;;;;;;;4983007;28;20097;-61
2023/09/05 02:04:03;;;;;;;2.60;2.40;;;;;;;;;;4999633;28;20036;-61
2023/09/05 02:06:28;;;;;;;3.13;2.30;;;;;;;;;;5017163;28;20347;-61
2023/09/05 02:08:54;;;;;;;2.47;2.28;;;;;;;;;;4999505;28;20033;-61
2023/09/05 02:11:20;;;;;;;3.10;2.28;;;;;;;;;;4999647;28;20026;-67
2023/09/05 02:13:46;;;;;;;2.75;2.58;;;;;;;;;;5017011;28;20021;-67
2023/09/05 02:16:18;;;;;;;2.50;2.30;;;;;;;;;;5016585;28;20080;-60
2023/09/05 02:18:44;;;;;;;2.60;2.40;;;;;;;;;;4999058;28;20030;-60
2023/09/05 02:21:10;;;;;;;2.72;2.53;;;;;;;;;;5017029;28;20057;-60
2023/09/05 02:23:35;;;;;;;2.55;2.35;;;;;;;;;;4999143;28;20080;-66
2023/09/05 02:26:02;;;;;;;3.53;2.65;;;;;;;;;;4999107;28;20037;-61
2023/09/05 02:28:34;;;;;;;2.55;2.35;;;;;;;;;;5016820;28;20033;-61
2023/09/05 02:31:03;;;;;;;3.50;2.60;;;;;;;;;;4998640;28;20060;-61
2023/09/05 02:33:29;;;;;;;2.72;2.53;;;;;;;;;;4998736;28;20026;-61
2023/09/05 02:36:05;;;;;;;2.58;2.15;;;;;;;;;;5016800;28;20030;-61
2023/09/05 02:38:30;;;;;;;3.35;2.40;;;;;;;;;;5016856;28;20041;-61
2023/09/05 02:40:57;;;;;;;4.18;2.45;;;;;;;;;;4998579;28;20042;-61
2023/09/05 02:43:22;;;;;;;3.17;2.80;;;;;;;;;;5016049;28;20060;-61
2023/09/05 02:45:51;;;;;;;2.53;2.33;;;;;;;;;;4998489;28;20116;-61
2023/09/05 02:48:17;;;;;;;8.70;2.60;;;;;;;;;;4999133;28;20034;-61
2023/09/05 02:50:42;;;;;;;3.47;2.58;;;;;;;;;;5015678;28;20122;-60
2023/09/05 02:53:07;;;;;;;3.25;2.13;;;;;;;;;;5016181;28;20026;-60
2023/09/05 02:55:34;;;;;;;2.20;2.10;;;;;;;;;;5016084;28;20026;-60
2023/09/05 02:58:00;;;;;;;2.08;1.98;;;;;;;;;;4998144;28;20030;-60
2023/09/05 03:00:25;;;;;;;2.50;2.30;;;;;;;;;;5016114;28;20084;-61
2023/09/05 03:02:52;;;;;;;4.65;2.17;;;;;;;;;;4982393;28;20401;-61
2023/09/05 03:05:18;;;;;;;2.47;2.28;;;;;;;;;;4998137;28;20040;-61
2023/09/05 03:07:45;;;;;;;2.88;2.67;;;;;;;;;;4997879;28;20037;-61
2023/09/05 03:10:11;;;;;;;2.95;2.35;;;;;;;;;;4997985;28;20079;-61
2023/09/05 03:12:36;;;;;;;2.45;2.33;;;;;;;;;;4998599;28;20525;-67
2023/09/05 03:15:02;;;;;;;3.97;2.50;;;;;;;;;;4997854;28;20041;-66
2023/09/05 03:17:27;;;;;;;3.10;2.85;;;;;;;;;;4982447;28;20021;-68
2023/09/05 03:19:52;;;;;;;2.63;2.42;;;;;;;;;;4997926;28;20363;-68
2023/09/05 03:22:18;;;;;;;3.30;2.60;;;;;;;;;;5015553;28;20065;-67
2023/09/05 03:24:43;;;;;;;4.18;2.88;;;;;;;;;;5015808;28;20022;-67
2023/09/05 03:27:09;;;;;;;2.85;2.65;;;;;;;;;;4997651;28;20029;-68
2023/09/05 03:29:34;;;;;;;4.50;2.97;;;;;;;;;;4997437;28;20077;-69
2023/09/05 03:31:59;;;;;;;4.13;2.60;;;;;;;;;;4997479;28;20096;-69
2023/09/05 03:34:25;;;;;;;2.90;2.55;;;;;;;;;;5015355;28;20036;-69
2023/09/05 03:36:51;;;;;;;2.65;2.30;;;;;;;;;;4997376;28;20116;-69
2023/09/05 03:39:17;;;;;;;2.35;2.15;;;;;;;;;;5014991;28;20021;-69
2023/09/05 03:41:42;;;;;;;2.53;2.35;;;;;;;;;;5015423;28;20134;-68
2023/09/05 03:44:08;;;;;;;5.20;2.90;;;;;;;;;;5015310;28;20080;-68
2023/09/05 03:46:33;;;;;;;2.70;2.50;;;;;;;;;;5015325;28;20548;-68
2023/09/05 03:48:58;;;;;;;2.65;2.40;;;;;;;;;;5014902;28;20060;-61
2023/09/05 03:51:27;;;;;;;3.17;2.60;;;;;;;;;;5014906;28;20029;-61
2023/09/05 03:53:52;;;;;;;2.80;2.60;;;;;;;;;;5015116;28;20100;-61
2023/09/05 03:56:17;;;;;;;2.60;2.40;;;;;;;;;;4997355;28;20022;-61
2023/09/05 03:58:43;;;;;;;2.53;2.00;;;;;;;;;;4997439;28;20420;-61
2023/09/05 04:01:16;;;;;;;2.00;1.90;;;;;;;;;;4998129;28;20029;-68
2023/09/05 04:03:42;;;;;;;1.95;1.85;;;;;;;;;;5015124;28;20374;-67
2023/09/05 04:06:08;;;;;;;1.95;1.85;;;;;;;;;;5014451;28;20018;-68
2023/09/05 04:08:33;;;;;;;2.10;2.00;;;;;;;;;;5014417;28;20038;-65
2023/09/05 04:10:59;;;;;;;1.92;1.83;;;;;;;;;;4996875;28;20021;-59
2023/09/05 04:13:25;;;;;;;2.00;1.90;;;;;;;;;;5014487;28;20161;-61
2023/09/05 04:15:51;;;;;;;2.85;2.03;;;;;;;;;;5014914;28;20054;-62
2023/09/05 04:18:17;;;;;;;2.67;2.40;;;;;;;;;;5014787;28;20038;-72
2023/09/05 04:20:42;;;;;;;3.15;2.30;;;;;;;;;;4996658;28;20032;-59
2023/09/05 04:23:07;;;;;;;2.70;2.22;;;;;;;;;;5014624;28;20489;-61
2023/09/05 04:25:40;;;;;;;3.25;2.70;;;;;;;;;;4996845;28;20057;-61
2023/09/05 04:28:09;;;;;;;3.00;2.80;;;;;;;;;;4995472;28;20064;-61
2023/09/05 04:30:35;;;;;;;2.50;2.35;;;;;;;;;;4996384;28;20029;-66
2023/09/05 04:33:03;;;;;;;3.60;2.45;;;;;;;;;;5013640;28;20013;-66
2023/09/05 04:35:29;;;;;;;2.08;1.98;;;;;;;;;;4995089;28;20080;-66
2023/09/05 04:37:54;;;;;;;4.15;2.58;;;;;;;;;;4995860;28;20484;-66
2023/09/05 04:40:19;;;;;;;2.38;2.15;;;;;;;;;;5013067;28;20026;-66
2023/09/05 04:42:45;;;;;;;2.80;2.60;;;;;;;;;;4995256;28;20547;-66
2023/09/05 04:45:10;;;;;;;2.50;2.20;;;;;;;;;;5013599;28;20080;-66
2023/09/05 04:47:38;;;;;;;2.67;2.47;;;;;;;;;;5013371;28;20037;-66
2023/09/05 04:50:04;;;;;;;2.33;2.13;;;;;;;;;;5012626;28;20381;-67
2023/09/05 04:52:29;;;;;;;2.17;2.08;;;;;;;;;;5013189;28;20044;-67
2023/09/05 04:54:56;;;;;;;2.30;2.20;;;;;;;;;;5012971;28;20025;-66
2023/09/05 04:57:21;;;;;;;3.83;2.60;;;;;;;;;;4995860;28;20068;-67
2023/09/05 04:59:53;;;;;;;2.70;2.50;;;;;;;;;;5013185;28;20116;-66
2023/09/05 05:02:19;;;;;;;3.97;2.42;;;;;;;;;;5012202;28;20393;-66
2023/09/05 05:04:44;;;;;;;2.90;2.10;;;;;;;;;;5013297;28;20030;-66
2023/09/05 05:07:11;;;;;;;2.78;2.53;;;;;;;;;;5012948;28;20045;-61
2023/09/05 05:09:36;;;;;;;2.17;2.00;;;;;;;;;;5012943;28;20030;-61
2023/09/05 05:12:01;;;;;;;2.40;2.20;;;;;;;;;;5013004;28;20037;-67
2023/09/05 05:14:28;;;;;;;2.55;2.35;;;;;;;;;;5013600;28;20018;-67
2023/09/05 05:16:53;;;;;;;2.50;2.30;;;;;;;;;;5016908;28;20057;-67
2023/09/05 05:19:19;;;;;;;3.00;2.78;;;;;;;;;;4999214;28;20026;-69
2023/09/05 05:21:45;;;;;;;3.80;3.03;;;;;;;;;;5015068;28;20057;-61
2023/09/05 05:24:11;;;;;;;3.63;2.53;;;;;;;;;;5015841;28;20092;-61
2023/09/05 05:26:36;;;;;;;3.53;3.22;;;;;;;;;;5014937;28;20026;-61
2023/09/05 05:29:02;;;;;;;3.50;3.15;;;;;;;;;;5016633;28;20478;-61
2023/09/05 05:31:28;;;;;;;3.97;2.95;;;;;;;;;;5016331;28;20056;-61
2023/09/05 05:33:54;;;;;;;3.35;3.05;;;;;;;;;;5016374;28;20490;-60
2023/09/05 05:36:19;;;;;;;15.80;3.65;;;;;;;;;;4998371;28;20112;-60
2023/09/05 05:38:44;;;;;;;3.75;2.90;;;;;;;;;;5016215;28;20046;-60
2023/09/05 05:41:10;;;;;;;3.80;2.70;;;;;;;;;;4997214;28;20038;-60
2023/09/05 05:43:35;;;;;;;6.50;2.97;;;;;;;;;;5015335;28;20049;-60
2023/09/05 05:46:01;;;;;;;3.53;2.90;;;;;;;;;;5017196;28;20123;-60
2023/09/05 05:48:26;;;;;;;3.25;2.92;;;;;;;;;;5016847;28;20381;-60
2023/09/05 05:50:52;;;;;;;7.65;3.08;;;;;;;;;;5017039;28;20022;-60
2023/09/05 05:53:29;;;;;;;3.80;3.22;;;;;;;;;;5017255;28;20081;-60
2023/09/05 05:59:29;;;;;;;5.13;3.03;;;;;;;;;;5017180;28;20488;-58
2023/09/05 06:05:29;;;;;;;3.40;2.95;;;;;;;;;;5016789;28;20121;-58
2023/09/05 06:11:29;;;;;;;4.30;3.50;;;;;;;;;;5016938;28;20093;-58
2023/09/05 06:17:30;;;;;;;3.78;3.47;;;;;;;;;;5016838;28;20028;-57
2023/09/05 06:23:32;;;;;;;5.30;3.65;;;;;;;;;;5016747;28;20033;-57
2023/09/05 06:29:33;;;;;;;3.70;3.40;;;;;;;;;;5016335;28;20045;-57
2023/09/05 06:35:35;;;;;;;4.53;4.07;;;;;;;;;;5016463;28;20029;-57
2023/09/05 06:55:12;;;;;;;6.90;4.95;;;;;;;;;;4989484;23;20050;-57
2023/09/05 06:57:54;;;;;;;8.68;4.70;;;;;;;;;;5037672;23;20044;-58
2023/09/05 07:00:23;;;;;;;6.25;4.22;;;;;;;;;;4936324;29;20079;-57
2023/09/05 07:02:49;;;;;;;6.63;4.47;;;;;;;;;;4937859;29;20031;-57
2023/09/05 07:05:15;;;;;;;5.97;4.80;;;;;;;;;;4937808;29;20035;-57
2023/09/05 07:07:40;;;;;;;5.15;4.70;;;;;;;;;;4937720;29;20076;-57
2023/09/05 07:10:06;;;;;;;6.63;4.40;;;;;;;;;;4920863;29;20031;-57
2023/09/05 07:12:31;;;;;;;5.10;4.10;;;;;;;;;;4937707;29;20084;-57
2023/09/05 07:14:56;;;;;;;4.32;3.70;;;;;;;;;;4937920;29;20032;-57
2023/09/05 07:17:22;;;;;;;5.38;4.68;;;;;;;;;;4937685;29;20023;-57
2023/09/05 07:19:47;;;;;;;4.60;4.20;;;;;;;;;;4937599;29;20115;-57
2023/09/05 07:22:13;;;;;;;3.88;3.58;;;;;;;;;;4937525;29;20044;-57
2023/09/05 07:24:38;;;;;;;3.65;3.30;;;;;;;;;;4937465;29;20031;-58
2023/09/05 07:27:04;;;;;;;4.60;3.53;;;;;;;;;;4937412;29;20039;-57
2023/09/05 07:29:31;;;;;;;3.90;3.03;;;;;;;;;;4920395;29;20122;-57
2023/09/05 07:31:56;;;;;;;3.60;3.30;;;;;;;;;;4937293;29;20042;-57
2023/09/05 07:34:22;;;;;;;5.25;3.42;;;;;;;;;;4937345;29;20065;-57
2023/09/05 07:36:47;;;;;;;3.53;3.17;;;;;;;;;;4936898;29;20035;-58
2023/09/05 07:39:13;;;;;;;3.03;2.83;;;;;;;;;;4920438;29;20050;-58
2023/09/05 07:41:38;;;;;;;4.97;3.58;;;;;;;;;;4937131;29;20088;-57
2023/09/05 07:44:04;;;;;;;4.78;3.75;;;;;;;;;;4937117;29;20420;-57
2023/09/05 07:46:29;;;;;;;5.93;2.92;;;;;;;;;;4937111;29;20399;-58
2023/09/05 07:48:55;;;;;;;3.08;2.80;;;;;;;;;;4919959;29;20037;-57
2023/09/05 07:51:22;;;;;;;4.88;3.55;;;;;;;;;;4937229;29;20031;-57
2023/09/05 07:54:00;;;;;;;2.85;2.58;;;;;;;;;;4919902;29;20452;-57
2023/09/05 07:56:26;;;;;;;2.92;2.70;;;;;;;;;;4936949;29;20110;-57
2023/09/05 07:58:51;;;;;;;3.97;3.22;;;;;;;;;;4936671;29;20135;-57
2023/09/05 08:01:17;;;;;;;3.25;2.75;;;;;;;;;;4936808;29;20510;-57
2023/09/05 08:03:42;;;;;;;3.40;3.15;;;;;;;;;;4936802;29;20036;-57
2023/09/05 08:06:08;;;;;;;4.72;3.22;;;;;;;;;;4936783;29;20091;-57
2023/09/05 08:08:33;;;;;;;5.07;4.10;;;;;;;;;;4936652;29;20087;-57
2023/09/05 08:10:58;;;;;;;8.27;4.30;;;;;;;;;;4936646;29;20036;-57
2023/09/05 08:13:25;;;;;;;3.33;2.70;;;;;;;;;;4936621;29;20027;-57
2023/09/05 08:15:51;;;;;;;3.25;2.80;;;;;;;;;;4936651;29;20031;-57
2023/09/05 08:18:17;;;;;;;2.83;2.63;;;;;;;;;;4936515;29;20068;-57
2023/09/05 08:20:46;;;;;;;3.80;2.70;;;;;;;;;;4936568;29;20119;-64
2023/09/05 08:23:11;;;;;;;2.95;2.63;;;;;;;;;;4936495;29;20036;-64
2023/09/05 08:25:37;;;;;;;3.35;3.05;;;;;;;;;;4936599;29;20476;-64
2023/09/05 08:28:02;;;;;;;3.70;3.30;;;;;;;;;;4936312;29;20042;-64
2023/09/05 08:30:28;;;;;;;3.88;2.85;;;;;;;;;;4936390;29;20098;-64
2023/09/05 08:32:57;;;;;;;2.72;2.53;;;;;;;;;;4936334;29;20040;-64
2023/09/05 08:35:22;;;;;;;4.13;3.08;;;;;;;;;;4936325;29;20027;-64
2023/09/05 08:37:48;;;;;;;6.15;2.85;;;;;;;;;;4936245;29;20027;-64
2023/09/05 08:40:15;;;;;;;3.10;2.85;;;;;;;;;;4936277;29;20103;-64
2023/09/05 08:42:40;;;;;;;3.05;2.85;;;;;;;;;;4936171;29;20031;-64
2023/09/05 08:45:09;;;;;;;5.07;2.72;;;;;;;;;;4936241;29;20023;-64
2023/09/05 08:47:34;;;;;;;5.40;3.63;;;;;;;;;;4919278;29;20397;-64
2023/09/05 08:50:00;;;;;;;3.78;3.45;;;;;;;;;;4935257;29;20043;-64
2023/09/05 08:52:28;;;;;;;3.25;2.80;;;;;;;;;;4936374;29;20032;-64
2023/09/05 08:54:54;;;;;;;2.78;2.58;;;;;;;;;;4936132;29;20067;-64
2023/09/05 08:57:20;;;;;;;3.95;3.47;;;;;;;;;;4918955;29;20039;-64
2023/09/05 08:59:45;;;;;;;2.55;2.03;;;;;;;;;;4935957;29;20114;-64
2023/09/05 09:02:17;;;;;;;2.72;2.42;;;;;;;;;;4936042;29;20446;-64
2023/09/05 09:04:52;;;;;;;3.05;2.60;;;;;;;;;;4936068;29;20094;-64
2023/09/05 09:07:18;;;;;;;3.83;2.33;;;;;;;;;;4935966;29;20473;-64
2023/09/05 09:09:44;;;;;;;2.00;1.90;;;;;;;;;;4935929;29;20043;-64
2023/09/05 09:12:10;;;;;;;3.05;2.78;;;;;;;;;;4919031;29;20032;-64
2023/09/05 09:14:35;;;;;;;2.08;1.98;;;;;;;;;;4935947;29;20035;-64
2023/09/05 09:17:04;;;;;;;3.08;2.00;;;;;;;;;;4935917;29;20387;-64
2023/09/05 09:19:30;;;;;;;2.40;2.20;;;;;;;;;;4935928;29;20107;-64
2023/09/05 09:22:00;;;;;;;5.45;3.22;;;;;;;;;;4935876;29;20481;-64
2023/09/05 09:24:30;;;;;;;2.50;2.30;;;;;;;;;;4935849;29;20453;-64
2023/09/05 09:27:04;;;;;;;2.08;1.60;;;;;;;;;;4936068;29;20040;-64
2023/09/05 09:29:30;;;;;;;2.33;1.85;;;;;;;;;;4935778;29;20465;-64
2023/09/05 09:32:05;;;;;;;2.97;1.75;;;;;;;;;;4935735;29;20032;-64
2023/09/05 09:34:31;;;;;;;2.42;2.22;;;;;;;;;;4935791;29;20031;-64
2023/09/05 09:36:58;;;;;;;2.20;1.70;;;;;;;;;;4918740;29;20042;-64
2023/09/05 09:39:24;;;;;;;2.72;2.08;;;;;;;;;;4935739;29;20040;-64
2023/09/05 09:41:49;;;;;;;2.53;2.33;;;;;;;;;;4935751;29;20032;-64
2023/09/05 09:44:28;;;;;;;2.10;1.90;;;;;;;;;;4935612;29;20503;-64
2023/09/05 09:46:54;;;;;;;2.30;2.10;;;;;;;;;;4935651;29;20031;-64
2023/09/05 09:49:20;;;;;;;5.32;2.70;;;;;;;;;;4935532;29;20047;-64
2023/09/05 09:51:49;;;;;;;2.75;2.40;;;;;;;;;;4935676;29;20365;-64
2023/09/05 09:54:16;;;;;;;3.25;3.00;;;;;;;;;;4935607;29;20091;-64
2023/09/05 09:56:42;;;;;;;2.30;2.20;;;;;;;;;;4935585;29;20110;-57
2023/09/05 09:59:08;;;;;;;3.72;2.90;;;;;;;;;;4935418;29;20151;-58
2023/09/05 10:01:34;;;;;;;8.63;7.25;;;;;;;;;;4921077;29;20046;-58
2023/09/05 10:03:59;;;;;;;2.60;2.40;;;;;;;;;;4938973;29;20028;-58
2023/09/05 10:06:25;;;;;;;2.30;2.10;;;;;;;;;;4938985;29;20099;-57
2023/09/05 10:08:51;;;;;;;1.83;1.73;;;;;;;;;;4921855;29;20196;-57
2023/09/05 10:11:16;;;;;;;3.17;2.45;;;;;;;;;;4938882;29;20083;-58
2023/09/05 10:13:42;;;;;;;2.50;2.20;;;;;;;;;;4938803;29;20451;-58
2023/09/05 10:16:08;;;;;;;2.67;1.98;;;;;;;;;;4938793;29;20460;-58
2023/09/05 10:18:38;;;;;;;3.08;2.00;;;;;;;;;;4938740;29;20035;-58
2023/09/05 10:21:03;;;;;;;2.70;1.92;;;;;;;;;;4938689;29;20076;-58
2023/09/05 10:23:33;;;;;;;2.40;2.20;;;;;;;;;;4938691;29;20036;-58
2023/09/05 10:26:00;;;;;;;3.60;2.20;;;;;;;;;;4921560;29;20031;-57
2023/09/05 10:28:28;;;;;;;2.38;2.03;;;;;;;;;;4938503;29;20110;-58
2023/09/05 10:30:54;;;;;;;2.17;2.08;;;;;;;;;;4938578;29;20036;-58
2023/09/05 10:33:36;;;;;;;2.30;2.15;;;;;;;;;;4921542;29;20103;-57
2023/09/05 10:36:02;;;;;;;1.88;1.77;;;;;;;;;;4938436;29;20040;-58
2023/09/05 10:38:28;;;;;;;2.88;2.33;;;;;;;;;;4938395;29;20064;-58
2023/09/05 10:40:53;;;;;;;2.30;2.10;;;;;;;;;;4938329;29;20042;-57
2023/09/05 10:43:25;;;;;;;3.25;2.00;;;;;;;;;;4938267;29;20036;-58
2023/09/05 10:46:01;;;;;;;2.58;2.30;;;;;;;;;;4938220;29;20042;-57
2023/09/05 10:48:37;;;;;;;2.40;2.20;;;;;;;;;;4938176;29;20387;-57
2023/09/05 10:51:08;;;;;;;2.20;1.90;;;;;;;;;;4938103;29;20027;-58
2023/09/05 10:53:37;;;;;;;1.83;1.73;;;;;;;;;;4938163;29;20036;-58
2023/09/05 10:56:03;;;;;;;2.15;2.05;;;;;;;;;;4938139;29;20028;-57
2023/09/05 10:58:39;;;;;;;2.15;2.00;;;;;;;;;;4938092;29;20054;-58
2023/09/05 11:01:29;;;;;;;3.60;2.00;;;;;;;;;;4937999;29;20039;-58
2023/09/05 11:03:55;;;;;;;2.00;1.90;;;;;;;;;;4911780;29;20130;-57
2023/09/05 11:06:21;;;;;;;3.25;2.95;;;;;;;;;;4938140;29;20055;-57
2023/09/05 11:08:55;;;;;;;2.75;2.55;;;;;;;;;;4937811;29;20126;-58
2023/09/05 11:11:24;;;;;;;2.63;2.40;;;;;;;;;;4937535;29;20186;-58
2023/09/05 11:13:50;;;;;;;2.30;2.10;;;;;;;;;;4937273;29;20511;-58
2023/09/05 11:16:15;;;;;;;2.38;2.28;;;;;;;;;;4937750;29;20035;-58
2023/09/05 11:18:52;;;;;;;2.75;2.35;;;;;;;;;;4937665;29;20031;-58
2023/09/05 11:21:20;;;;;;;5.03;2.30;;;;;;;;;;4937616;29;20028;-58
2023/09/05 11:23:55;;;;;;;4.57;1.95;;;;;;;;;;4937581;29;20036;-58
2023/09/05 11:26:21;;;;;;;2.38;2.17;;;;;;;;;;4920486;29;20059;-58
2023/09/05 11:28:48;;;;;;;1.90;1.80;;;;;;;;;;4937442;29;20460;-64
2023/09/05 11:31:14;;;;;;;2.20;2.10;;;;;;;;;;4937506;29;20047;-64
2023/09/05 11:33:39;;;;;;;2.78;2.17;;;;;;;;;;4937341;29;20484;-64
2023/09/05 11:36:06;;;;;;;3.13;1.92;;;;;;;;;;4937369;29;20439;-64
2023/09/05 11:38:43;;;;;;;1.85;1.75;;;;;;;;;;4937278;29;20036;-65
2023/09/05 11:41:09;;;;;;;2.17;2.03;;;;;;;;;;4920188;29;20376;-65
2023/09/05 11:43:35;;;;;;;1.88;1.77;;;;;;;;;;4937434;29;20038;-65
2023/09/05 11:46:00;;;;;;;2.22;2.13;;;;;;;;;;4937134;29;20078;-64
2023/09/05 11:48:28;;;;;;;2.20;2.00;;;;;;;;;;4937021;29;20063;-64
2023/09/05 11:50:53;;;;;;;1.98;1.88;;;;;;;;;;4937101;29;20119;-64
2023/09/05 11:53:19;;;;;;;2.20;2.08;;;;;;;;;;4937028;29;20103;-64
2023/09/05 11:55:46;;;;;;;2.20;2.00;;;;;;;;;;4936947;29;20106;-65
2023/09/05 11:58:13;;;;;;;2.50;2.00;;;;;;;;;;4936784;29;20396;-64
2023/09/05 12:00:43;;;;;;;2.83;2.00;;;;;;;;;;4936862;29;20031;-64
2023/09/05 12:03:09;;;;;;;2.33;2.10;;;;;;;;;;4919885;29;20034;-64
2023/09/05 12:05:38;;;;;;;3.50;2.08;;;;;;;;;;4936765;29;20400;-64
2023/09/05 12:08:06;;;;;;;2.20;2.10;;;;;;;;;;4936672;29;20032;-65
2023/09/05 12:10:38;;;;;;;2.00;1.80;;;;;;;;;;4936726;29;20034;-64
2023/09/05 12:13:04;;;;;;;2.30;2.10;;;;;;;;;;4936668;29;20042;-65
2023/09/05 12:15:36;;;;;;;2.25;2.15;;;;;;;;;;4919598;29;20019;-65
2023/09/05 12:18:04;;;;;;;2.20;2.00;;;;;;;;;;4936505;29;20392;-64
2023/09/05 12:20:32;;;;;;;2.65;2.22;;;;;;;;;;4936570;29;20027;-65
2023/09/05 12:22:58;;;;;;;2.40;2.00;;;;;;;;;;4936296;29;20030;-64
2023/09/05 12:25:28;;;;;;;3.30;2.20;;;;;;;;;;4936519;29;20016;-65
2023/09/05 12:27:57;;;;;;;2.80;2.47;;;;;;;;;;4936370;29;20032;-64
2023/09/05 12:30:26;;;;;;;2.40;1.88;;;;;;;;;;4936424;29;20035;-65
2023/09/05 12:33:01;;;;;;;1.98;1.88;;;;;;;;;;4936322;29;20119;-65
2023/09/05 12:35:28;;;;;;;2.20;2.10;;;;;;;;;;4936335;29;20039;-65
2023/09/05 12:37:56;;;;;;;2.30;2.10;;;;;;;;;;4936264;29;20012;-65
2023/09/05 12:40:23;;;;;;;4.10;2.45;;;;;;;;;;4919149;29;20055;-65
2023/09/05 12:42:49;;;;;;;2.20;2.00;;;;;;;;;;4936234;29;20020;-65
2023/09/05 12:45:16;;;;;;;1.95;1.77;;;;;;;;;;4936255;29;20059;-65
2023/09/05 12:47:41;;;;;;;2.22;2.03;;;;;;;;;;4936396;29;20039;-65
2023/09/05 12:50:15;;;;;;;3.85;2.15;;;;;;;;;;4936178;29;20472;-64
2023/09/05 12:52:43;;;;;;;2.45;2.10;;;;;;;;;;4936691;29;20036;-64
2023/09/05 12:55:13;;;;;;;2.22;2.00;;;;;;;;;;4936940;29;20040;-65
2023/09/05 12:57:38;;;;;;;1.80;1.70;;;;;;;;;;4936623;29;20103;-65
2023/09/05 13:00:04;;;;;;;2.63;2.10;;;;;;;;;;4936288;29;20134;-65
2023/09/05 13:02:30;;;;;;;2.22;1.88;;;;;;;;;;4937137;29;20464;-65
2023/09/05 13:04:55;;;;;;;2.60;2.00;;;;;;;;;;4936348;29;20415;-64
2023/09/05 13:07:21;;;;;;;4.22;2.25;;;;;;;;;;4936852;29;20048;-65
2023/09/05 13:09:46;;;;;;;2.10;2.00;;;;;;;;;;4936062;29;20024;-65
2023/09/05 13:12:11;;;;;;;1.88;1.77;;;;;;;;;;4936129;29;20031;-63
2023/09/05 13:14:37;;;;;;;1.55;1.45;;;;;;;;;;4932620;29;20377;-63
2023/09/05 13:17:03;;;;;;;2.17;2.08;;;;;;;;;;4933740;29;20087;-64
2023/09/05 13:19:29;;;;;;;2.47;2.28;;;;;;;;;;4914410;29;20485;-61
2023/09/05 13:21:55;;;;;;;2.35;2.17;;;;;;;;;;4918038;29;20491;-61
2023/09/05 13:24:23;;;;;;;3.65;2.30;;;;;;;;;;4914408;29;20063;-61
2023/09/05 13:26:48;;;;;;;3.72;2.63;;;;;;;;;;4918469;29;20480;-61
2023/09/05 13:29:13;;;;;;;2.83;2.40;;;;;;;;;;4927322;29;20036;-61
2023/09/05 13:31:39;;;;;;;2.58;1.83;;;;;;;;;;4926064;29;20031;-61
2023/09/05 13:34:05;;;;;;;2.35;1.83;;;;;;;;;;4933212;29;20020;-61
2023/09/05 13:36:32;;;;;;;3.38;2.40;;;;;;;;;;4929540;29;20063;-66
2023/09/05 13:38:58;;;;;;;2.70;2.38;;;;;;;;;;4904780;29;20099;-66
2023/09/05 13:41:23;;;;;;;2.70;2.28;;;;;;;;;;4927575;29;20039;-66
2023/09/05 13:43:49;;;;;;;3.58;2.35;;;;;;;;;;4937446;29;20390;-66
2023/09/05 13:46:14;;;;;;;2.70;1.77;;;;;;;;;;4958375;29;20395;-66
2023/09/05 13:48:45;;;;;;;2.25;2.05;;;;;;;;;;4938360;29;20054;-61
2023/09/05 13:51:10;;;;;;;3.22;2.30;;;;;;;;;;4942265;29;20038;-61
2023/09/05 13:53:36;;;;;;;4.13;2.00;;;;;;;;;;4939112;29;20024;-61
2023/09/05 13:56:02;;;;;;;4.95;2.10;;;;;;;;;;4937391;29;20039;-61
2023/09/05 13:58:27;;;;;;;2.20;2.10;;;;;;;;;;4932082;29;20047;-61
2023/09/05 14:00:53;;;;;;;2.05;1.92;;;;;;;;;;4938808;29;20341;-61
2023/09/05 14:03:18;;;;;;;2.80;2.05;;;;;;;;;;4921751;29;20399;-61
2023/09/05 14:05:44;;;;;;;2.03;1.90;;;;;;;;;;4924230;29;20035;-61
2023/09/05 14:08:11;;;;;;;2.38;2.10;;;;;;;;;;4938869;29;20031;-61
2023/09/05 14:10:38;;;;;;;2.30;2.20;;;;;;;;;;4939124;29;20460;-61
2023/09/05 14:13:03;;;;;;;1.65;1.55;;;;;;;;;;4938856;29;20372;-61
2023/09/05 14:15:29;;;;;;;2.67;2.20;;;;;;;;;;4938824;29;20032;-61
2023/09/05 14:17:54;;;;;;;2.40;2.30;;;;;;;;;;4905953;29;20027;-61
2023/09/05 14:20:23;;;;;;;3.15;2.50;;;;;;;;;;4938882;29;20078;-61
2023/09/05 14:22:48;;;;;;;3.15;2.30;;;;;;;;;;4938802;29;20040;-61
2023/09/05 14:25:14;;;;;;;2.28;2.17;;;;;;;;;;4938321;29;20043;-61
2023/09/05 14:27:39;;;;;;;2.40;2.20;;;;;;;;;;4938127;29;20479;-61
2023/09/05 14:30:05;;;;;;;2.50;2.30;;;;;;;;;;4938094;29;20370;-61
2023/09/05 14:32:30;;;;;;;2.30;2.10;;;;;;;;;;4937927;29;20035;-61
2023/09/05 14:34:56;;;;;;;2.22;2.13;;;;;;;;;;4921375;29;20043;-61
2023/09/05 14:37:22;;;;;;;2.05;1.95;;;;;;;;;;4938519;29;20552;-61
2023/09/05 14:39:48;;;;;;;3.70;2.30;;;;;;;;;;4938413;29;20035;-61
2023/09/05 14:42:13;;;;;;;3.15;2.20;;;;;;;;;;4921054;29;20038;-61
2023/09/05 14:44:41;;;;;;;2.17;2.08;;;;;;;;;;4921351;29;20036;-60
2023/09/05 14:47:06;;;;;;;1.77;1.67;;;;;;;;;;4937107;29;20028;-61
2023/09/05 14:49:33;;;;;;;2.17;2.08;;;;;;;;;;4938392;29;20031;-61
2023/09/05 14:51:58;;;;;;;1.90;1.80;;;;;;;;;;4937883;29;20047;-61
2023/09/05 14:54:23;;;;;;;1.83;1.73;;;;;;;;;;4938294;29;20024;-61
2023/09/05 14:56:50;;;;;;;4.07;2.47;;;;;;;;;;4938130;29;20511;-60
2023/09/05 14:59:16;;;;;;;3.10;1.98;;;;;;;;;;4938019;29;20056;-61
2023/09/05 15:01:43;;;;;;;1.92;1.73;;;;;;;;;;4938025;29;20067;-60
2023/09/05 15:04:11;;;;;;;2.10;1.90;;;;;;;;;;4920708;29;20035;-61
2023/09/05 15:06:36;;;;;;;2.75;2.42;;;;;;;;;;4937907;29;20036;-60
2023/09/05 15:09:02;;;;;;;5.38;2.15;;;;;;;;;;4937735;29;20038;-60
2023/09/05 15:11:27;;;;;;;2.92;2.33;;;;;;;;;;4937550;29;20031;-61
2023/09/05 15:13:52;;;;;;;2.15;2.05;;;;;;;;;;4937523;29;20039;-60
2023/09/05 15:16:19;;;;;;;1.80;1.70;;;;;;;;;;4937750;29;20027;-61
2023/09/05 15:18:45;;;;;;;2.22;2.00;;;;;;;;;;4920051;29;20040;-60
2023/09/05 15:21:11;;;;;;;2.45;1.90;;;;;;;;;;4937637;29;20047;-61
2023/09/05 15:23:36;;;;;;;2.40;2.20;;;;;;;;;;4918792;29;20043;-60